Map

Track Data

SID SEASON NUMBER BASIN SUBBASIN NAME ISO_TIME NATURE LAT LON WMO_WIND WMO_PRES WMO_AGENCY TRACK_TYPE DIST2LAND LANDFALL IFLAG USA_AGENCY USA_ATCF_ID USA_LAT USA_LON USA_RECORD USA_STATUS USA_WIND USA_PRES USA_SSHS USA_R34_NE USA_R34_SE USA_R34_SW USA_R34_NW USA_R50_NE USA_R50_SE USA_R50_SW USA_R50_NW USA_R64_NE USA_R64_SE USA_R64_SW USA_R64_NW USA_POCI USA_ROCI USA_RMW USA_EYE TOKYO_LAT TOKYO_LON TOKYO_GRADE TOKYO_WIND TOKYO_PRES TOKYO_R50_DIR TOKYO_R50_LONG TOKYO_R50_SHORT TOKYO_R30_DIR TOKYO_R30_LONG TOKYO_R30_SHORT TOKYO_LAND CMA_LAT CMA_LON CMA_CAT CMA_WIND CMA_PRES HKO_LAT HKO_LON HKO_CAT HKO_WIND HKO_PRES NEWDELHI_LAT NEWDELHI_LON NEWDELHI_GRADE NEWDELHI_WIND NEWDELHI_PRES NEWDELHI_CI NEWDELHI_DP NEWDELHI_POCI REUNION_LAT REUNION_LON REUNION_TYPE REUNION_WIND REUNION_PRES REUNION_TNUM REUNION_CI REUNION_RMW REUNION_R34_NE REUNION_R34_SE REUNION_R34_SW REUNION_R34_NW REUNION_R50_NE REUNION_R50_SE REUNION_R50_SW REUNION_R50_NW REUNION_R64_NE REUNION_R64_SE REUNION_R64_SW REUNION_R64_NW BOM_LAT BOM_LON BOM_TYPE BOM_WIND BOM_PRES BOM_TNUM BOM_CI BOM_RMW BOM_R34_NE BOM_R34_SE BOM_R34_SW BOM_R34_NW BOM_R50_NE BOM_R50_SE BOM_R50_SW BOM_R50_NW BOM_R64_NE BOM_R64_SE BOM_R64_SW BOM_R64_NW BOM_ROCI BOM_POCI BOM_EYE BOM_POS_METHOD BOM_PRES_METHOD NADI_LAT NADI_LON NADI_CAT NADI_WIND NADI_PRES WELLINGTON_LAT WELLINGTON_LON WELLINGTON_WIND WELLINGTON_PRES DS824_LAT DS824_LON DS824_STAGE DS824_WIND DS824_PRES TD9636_LAT TD9636_LON TD9636_STAGE TD9636_WIND TD9636_PRES TD9635_LAT TD9635_LON TD9635_WIND TD9635_PRES TD9635_ROCI NEUMANN_LAT NEUMANN_LON NEUMANN_CLASS NEUMANN_WIND NEUMANN_PRES MLC_LAT MLC_LON MLC_CLASS MLC_WIND MLC_PRES USA_GUST BOM_GUST BOM_GUST_PER REUNION_GUST REUNION_GUST_PER USA_SEAHGT USA_SEARAD_NE USA_SEARAD_SE USA_SEARAD_SW USA_SEARAD_NW STORM_SPEED STORM_DIR
1918009S12070 1918 3 SI MM NOT_NAMED 1918-01-09 00:00:00 TS -11.6000 69.6000 main 1588 1543 _________O____ -1 -11.6000 69.6000 TC 25 9 206
1918009S12070 1918 3 SI MM NOT_NAMED 1918-01-09 03:00:00 TS -12.0000 69.4026 main 1543 1499 _________P____ -1 -12.0000 69.4026 TC 25 9 206
1918009S12070 1918 3 SI MM NOT_NAMED 1918-01-09 06:00:00 TS -12.4000 69.2000 main 1499 1455 _________O____ -1 -12.4000 69.2000 TC 25 9 207
1918009S12070 1918 3 SI MM NOT_NAMED 1918-01-09 09:00:00 TS -12.8000 68.9925 main 1455 1411 _________P____ -1 -12.8000 68.9925 TC 25 9 206
1918009S12070 1918 3 SI MM NOT_NAMED 1918-01-09 12:00:00 TS -13.2000 68.8000 main 1411 1377 _________O____ -1 -13.2000 68.8000 TC 25 9 203
1918009S12070 1918 3 SI MM NOT_NAMED 1918-01-09 15:00:00 TS -13.6075 68.6424 main 1368 1335 _________P____ -1 -13.6075 68.6424 TC 25 9 200
1918009S12070 1918 3 SI MM NOT_NAMED 1918-01-09 18:00:00 TS -14.0000 68.5000 main 1335 1308 _________O____ -1 -14.0000 68.5000 TC 25 8 200
1918009S12070 1918 3 SI MM NOT_NAMED 1918-01-09 21:00:00 TS -14.3575 68.3649 main 1302 1267 _________P____ -1 -14.3575 68.3649 TC 25 8 203
1918009S12070 1918 3 SI MM NOT_NAMED 1918-01-10 00:00:00 TS -14.7000 68.2000 main 1267 1231 _________O____ -1 -14.7000 68.2000 TC 25 8 210
1918009S12070 1918 3 SI MM NOT_NAMED 1918-01-10 03:00:00 TS -15.0500 67.9575 main 1226 1182 _________P____ -1 -15.0500 67.9575 TC 25 9 215
1918009S12070 1918 3 SI MM NOT_NAMED 1918-01-10 06:00:00 TS -15.4000 67.7000 main 1182 1147 _________O____ -1 -15.4000 67.7000 TC 25 8 213
1918009S12070 1918 3 SI MM NOT_NAMED 1918-01-10 09:00:00 TS -15.7425 67.4924 main 1147 1107 _________P____ -1 -15.7425 67.4924 TC 25 8 209
1918009S12070 1918 3 SI MM NOT_NAMED 1918-01-10 12:00:00 TS -16.1000 67.3000 main 1107 1069 _________O____ -1 -16.1000 67.3000 TC 25 8 207
1918009S12070 1918 3 SI MM NOT_NAMED 1918-01-10 15:00:00 TS -16.4850 67.0999 main 1069 1031 _________P____ -1 -16.4850 67.0999 TC 25 9 206
1918009S12070 1918 3 SI MM NOT_NAMED 1918-01-10 18:00:00 TS -16.9000 66.9000 main 1031 994 _________O____ -1 -16.9000 66.9000 TC 25 10 204
1918009S12070 1918 3 SI MM NOT_NAMED 1918-01-10 21:00:00 TS -17.3500 66.7000 main 994 956 _________P____ -1 -17.3500 66.7000 TC 25 10 203
1918009S12070 1918 3 SI MM NOT_NAMED 1918-01-11 00:00:00 TS -17.8000 66.5000 main 956 922 _________O____ -1 -17.8000 66.5000 TC 25 9 204
1918009S12070 1918 3 SI MM NOT_NAMED 1918-01-11 03:00:00 TS -18.2000 66.2999 main 922 890 _________P____ -1 -18.2000 66.2999 TC 25 9 205
1918009S12070 1918 3 SI MM NOT_NAMED 1918-01-11 06:00:00 TS -18.6000 66.1000 main 890 860 _________O____ -1 -18.6000 66.1000 TC 25 9 204
1918009S12070 1918 3 SI MM NOT_NAMED 1918-01-11 09:00:00 TS -19.0500 65.8999 main 860 830 _________P____ -1 -19.0500 65.8999 TC 25 10 203
1918009S12070 1918 3 SI MM NOT_NAMED 1918-01-11 12:00:00 TS -19.5000 65.7000 main 830 805 _________O____ -1 -19.5000 65.7000 TC 25 9 204
1918009S12070 1918 3 SI MM NOT_NAMED 1918-01-11 15:00:00 TS -19.9075 65.4924 main 805 782 _________P____ -1 -19.9075 65.4924 TC 25 9 205
1918009S12070 1918 3 SI MM NOT_NAMED 1918-01-11 18:00:00 TS -20.3000 65.3000 main 782 771 _________O____ -1 -20.3000 65.3000 TC 25 8 203
1918009S12070 1918 3 SI MM NOT_NAMED 1918-01-11 21:00:00 TS -20.6775 65.1423 main 761 752 _________P____ -1 -20.6775 65.1423 TC 25 9 199
1918009S12070 1918 3 SI MM NOT_NAMED 1918-01-12 00:00:00 TS -21.1000 65.0000 main 754 746 _________O____ -1 -21.1000 65.0000 TC 25 10 196
1918009S12070 1918 3 SI MM NOT_NAMED 1918-01-12 03:00:00 TS -21.6275 64.8500 main 741 740 _________P____ -1 -21.6275 64.8500 TC 25 11 194
1918009S12070 1918 3 SI MM NOT_NAMED 1918-01-12 06:00:00 TS -22.2000 64.7000 main 745 742 _________O____ -1 -22.2000 64.7000 TC 25 12 194
1918009S12070 1918 3 SI MM NOT_NAMED 1918-01-12 09:00:00 TS -22.7425 64.5424 main 743 743 _________P____ -1 -22.7425 64.5424 TC 25 11 194
1918009S12070 1918 3 SI MM NOT_NAMED 1918-01-12 12:00:00 TS -23.3000 64.4000 main 758 758 _________O____ -1 -23.3000 64.4000 TC 25 12 191
1918009S12070 1918 3 SI MM NOT_NAMED 1918-01-12 15:00:00 TS -23.8925 64.2923 main 778 778 _________P____ -1 -23.8925 64.2923 TC 25 12 189
1918009S12070 1918 3 SI MM NOT_NAMED 1918-01-12 18:00:00 TS -24.5000 64.2000 main 803 803 _________O____ -1 -24.5000 64.2000 TC 25 12 188
1918009S12070 1918 3 SI MM NOT_NAMED 1918-01-12 21:00:00 TS -25.1025 64.1027 main 833 833 _________P____ -1 -25.1025 64.1027 TC 25 12 189
1918009S12070 1918 3 SI MM NOT_NAMED 1918-01-13 00:00:00 TS -25.7000 64.0000 main 867 _________O____ -1 -25.7000 64.0000 TC 25 12 188

About IBTrACS Database

This database is a web-friendly format of International Best Track Archive for Climate Stewardship (IBTrACS), a global best track data archive curated by NOAA dating back to 1842.

Updated: 2021-11-26